Time;durP1;ratioP1;P1;durP2;ratioP2;P2;SDS_P1;SDS_P2;PMS_P1;PMS_P2;Temp;Humidity;BMP_temperature;BMP_pressure;BME280_temperature;BME280_humidity;BME280_pressure;Samples;Min_cycle;Max_cycle;Signal;HPM_P1;HPM_P2
2021/08/15 00:01:34;;;;;;;25.83;10.23;;;;;;;;;;5056524;28;20048;-74
2021/08/15 00:03:59;;;;;;;26.65;10.63;;;;;;;;;;5056138;28;20476;-76
2021/08/15 00:06:24;;;;;;;26.63;12.23;;;;;;;;;;5038586;28;20373;-75
2021/08/15 00:08:50;;;;;;;40.20;12.38;;;;;;;;;;5056415;28;20025;-75
2021/08/15 00:11:15;;;;;;;29.73;11.82;;;;;;;;;;5056354;28;20104;-75
2021/08/15 00:13:40;;;;;;;33.53;12.00;;;;;;;;;;5055142;28;20025;-75
2021/08/15 00:16:05;;;;;;;31.92;13.02;;;;;;;;;;5055940;28;20040;-75
2021/08/15 00:18:31;;;;;;;33.95;12.60;;;;;;;;;;5056346;28;20033;-75
2021/08/15 00:20:56;;;;;;;31.70;12.25;;;;;;;;;;5056223;28;20552;-75
2021/08/15 00:23:22;;;;;;;36.30;12.85;;;;;;;;;;5056142;28;20025;-74
2021/08/15 00:25:47;;;;;;;32.88;12.45;;;;;;;;;;5056065;28;20028;-75
2021/08/15 00:28:13;;;;;;;30.23;13.35;;;;;;;;;;5056173;28;20476;-75
2021/08/15 00:30:39;;;;;;;36.75;13.93;;;;;;;;;;5055699;28;20060;-73
2021/08/15 00:33:05;;;;;;;42.30;13.80;;;;;;;;;;5055595;28;20060;-72
2021/08/15 00:35:30;;;;;;;31.45;12.25;;;;;;;;;;5055968;28;20017;-72
2021/08/15 00:37:55;;;;;;;37.20;12.82;;;;;;;;;;5055343;28;20501;-75
2021/08/15 00:40:21;;;;;;;33.20;12.10;;;;;;;;;;5056094;28;20036;-76
2021/08/15 00:42:46;;;;;;;28.92;11.60;;;;;;;;;;5055571;28;20195;-75
2021/08/15 00:45:11;;;;;;;37.30;12.88;;;;;;;;;;5037889;28;20064;-75
2021/08/15 00:47:37;;;;;;;39.13;11.48;;;;;;;;;;5055669;28;20457;-77
2021/08/15 00:50:03;;;;;;;27.02;12.25;;;;;;;;;;5055630;28;20033;-76
2021/08/15 00:52:28;;;;;;;28.52;11.75;;;;;;;;;;5055614;28;20017;-75
2021/08/15 00:54:57;;;;;;;36.05;12.52;;;;;;;;;;5055535;28;20035;-75
2021/08/15 00:57:29;;;;;;;36.35;12.45;;;;;;;;;;5055516;28;20096;-75
2021/08/15 00:59:56;;;;;;;43.13;12.52;;;;;;;;;;5055409;28;20041;-76
2021/08/15 01:02:21;;;;;;;28.38;12.50;;;;;;;;;;5055165;28;20428;-75
2021/08/15 01:04:47;;;;;;;29.13;12.45;;;;;;;;;;5055530;28;20017;-75
2021/08/15 01:07:12;;;;;;;31.42;11.65;;;;;;;;;;5054578;28;20037;-75
2021/08/15 01:09:39;;;;;;;25.25;10.73;;;;;;;;;;5055116;28;20041;-77
2021/08/15 01:12:05;;;;;;;36.53;12.73;;;;;;;;;;5055148;28;20109;-75
2021/08/15 01:14:30;;;;;;;26.23;10.07;;;;;;;;;;5054599;28;20052;-75
2021/08/15 01:16:55;;;;;;;29.38;10.70;;;;;;;;;;5055061;28;20056;-75
2021/08/15 01:19:27;;;;;;;24.23;11.07;;;;;;;;;;5055199;28;20450;-77
2021/08/15 01:21:52;;;;;;;32.78;12.40;;;;;;;;;;5054171;28;20036;-76
2021/08/15 01:24:17;;;;;;;24.25;10.63;;;;;;;;;;5054790;28;20017;-74
2021/08/15 01:26:43;;;;;;;30.08;11.60;;;;;;;;;;5054711;28;20025;-75
2021/08/15 01:29:09;;;;;;;27.95;11.50;;;;;;;;;;5054700;28;20029;-75
2021/08/15 01:31:34;;;;;;;29.63;10.52;;;;;;;;;;5054802;28;20047;-75
2021/08/15 01:33:59;;;;;;;29.23;11.68;;;;;;;;;;5054618;28;20505;-75
2021/08/15 01:36:25;;;;;;;25.20;11.93;;;;;;;;;;5055041;28;20389;-75
2021/08/15 01:38:50;;;;;;;32.17;12.05;;;;;;;;;;5038943;28;20373;-75
2021/08/15 01:41:16;;;;;;;25.35;11.48;;;;;;;;;;5052180;28;20017;-75
2021/08/15 01:43:48;;;;;;;28.20;10.05;;;;;;;;;;5053721;28;20055;-75
2021/08/15 01:46:13;;;;;;;24.20;11.10;;;;;;;;;;5054883;28;20025;-75
2021/08/15 01:48:39;;;;;;;23.42;9.55;;;;;;;;;;5053092;28;20087;-76
2021/08/15 01:51:04;;;;;;;18.23;9.38;;;;;;;;;;5053295;28;20036;-75
2021/08/15 01:53:29;;;;;;;17.38;9.05;;;;;;;;;;5053842;28;20060;-75
2021/08/15 01:55:55;;;;;;;20.27;8.63;;;;;;;;;;5054107;28;20047;-77
2021/08/15 01:58:20;;;;;;;13.18;8.38;;;;;;;;;;5054113;28;20129;-75
2021/08/15 02:00:46;;;;;;;12.55;6.88;;;;;;;;;;5035983;28;20035;-75
2021/08/15 02:03:11;;;;;;;17.25;6.78;;;;;;;;;;5054268;28;20469;-75
2021/08/15 02:05:37;;;;;;;15.90;6.93;;;;;;;;;;5053554;28;20039;-75
2021/08/15 02:08:03;;;;;;;15.13;6.70;;;;;;;;;;5053431;28;20033;-75
2021/08/15 02:10:29;;;;;;;11.65;6.25;;;;;;;;;;5053645;28;20119;-75
2021/08/15 02:12:55;;;;;;;13.63;5.72;;;;;;;;;;5054052;28;20076;-75
2021/08/15 02:15:21;;;;;;;15.57;6.70;;;;;;;;;;5053994;28;20044;-75
2021/08/15 02:17:46;;;;;;;12.93;5.63;;;;;;;;;;5054218;28;20108;-75
2021/08/15 02:20:14;;;;;;;13.63;5.63;;;;;;;;;;5053134;28;20029;-75
2021/08/15 02:22:39;;;;;;;12.77;5.50;;;;;;;;;;5053089;28;20017;-75
2021/08/15 02:25:08;;;;;;;16.83;5.80;;;;;;;;;;5054340;28;20028;-75
2021/08/15 02:27:34;;;;;;;9.57;5.40;;;;;;;;;;5035993;28;20095;-75
2021/08/15 02:29:59;;;;;;;10.13;5.43;;;;;;;;;;5053202;28;20465;-76
2021/08/15 02:32:24;;;;;;;10.52;5.05;;;;;;;;;;5054012;28;20104;-75
2021/08/15 02:34:49;;;;;;;11.82;5.60;;;;;;;;;;5053329;28;20071;-75
2021/08/15 02:37:15;;;;;;;9.70;4.88;;;;;;;;;;5050815;28;20029;-76
2021/08/15 02:39:40;;;;;;;11.15;5.28;;;;;;;;;;5033823;28;20036;-75
2021/08/15 02:42:05;;;;;;;10.88;4.65;;;;;;;;;;5035398;28;20428;-74
2021/08/15 02:44:31;;;;;;;13.55;6.13;;;;;;;;;;5053153;28;20461;-74
2021/08/15 02:46:56;;;;;;;9.52;4.43;;;;;;;;;;5053375;28;20025;-76
2021/08/15 02:49:21;;;;;;;11.70;5.10;;;;;;;;;;5052430;28;20124;-75
2021/08/15 02:51:46;;;;;;;15.40;4.93;;;;;;;;;;5052334;28;20385;-75
2021/08/15 02:54:12;;;;;;;10.57;5.05;;;;;;;;;;5053531;28;20059;-75
2021/08/15 02:56:37;;;;;;;10.80;5.10;;;;;;;;;;5035296;28;20488;-75
2021/08/15 02:59:02;;;;;;;12.55;5.28;;;;;;;;;;5053128;28;20441;-75
2021/08/15 03:01:28;;;;;;;10.50;5.45;;;;;;;;;;5052173;28;20100;-75
2021/08/15 03:03:53;;;;;;;16.42;6.43;;;;;;;;;;5053482;28;20033;-75
2021/08/15 03:06:18;;;;;;;13.38;5.53;;;;;;;;;;5034494;28;20021;-75
2021/08/15 03:08:43;;;;;;;10.63;5.60;;;;;;;;;;5053288;28;20453;-75
2021/08/15 03:11:09;;;;;;;13.43;5.10;;;;;;;;;;5052503;28;20044;-75
2021/08/15 03:13:34;;;;;;;14.50;5.68;;;;;;;;;;5053070;28;20020;-75
2021/08/15 03:15:59;;;;;;;14.93;5.20;;;;;;;;;;5053097;28;20449;-75
2021/08/15 03:18:24;;;;;;;20.90;5.68;;;;;;;;;;5053073;28;20041;-76
2021/08/15 03:20:50;;;;;;;15.20;5.88;;;;;;;;;;5052918;28;20025;-75
2021/08/15 03:23:15;;;;;;;12.32;5.50;;;;;;;;;;5052863;28;20404;-76
2021/08/15 03:25:40;;;;;;;8.07;5.63;;;;;;;;;;5053262;28;20033;-75
2021/08/15 03:28:06;;;;;;;12.25;5.55;;;;;;;;;;5052510;28;20037;-75
2021/08/15 03:30:31;;;;;;;9.25;4.72;;;;;;;;;;5052691;28;20516;-75
2021/08/15 03:32:57;;;;;;;12.60;5.40;;;;;;;;;;5053147;28;20040;-77
2021/08/15 03:35:22;;;;;;;9.35;4.78;;;;;;;;;;5052898;28;20115;-75
2021/08/15 03:37:47;;;;;;;11.38;4.93;;;;;;;;;;5052528;28;20032;-75
2021/08/15 03:40:13;;;;;;;11.23;5.18;;;;;;;;;;5052510;28;20032;-75
2021/08/15 03:42:38;;;;;;;10.18;4.93;;;;;;;;;;5053142;28;20358;-75
2021/08/15 03:45:04;;;;;;;14.75;6.20;;;;;;;;;;5052404;28;20448;-75
2021/08/15 03:47:31;;;;;;;11.13;5.97;;;;;;;;;;5053120;28;20040;-76
2021/08/15 03:49:57;;;;;;;8.98;5.90;;;;;;;;;;5051961;28;20087;-75
2021/08/15 03:52:22;;;;;;;8.90;5.72;;;;;;;;;;5052548;28;20029;-75
2021/08/15 03:54:48;;;;;;;13.18;5.60;;;;;;;;;;5053089;28;20033;-75
2021/08/15 03:57:13;;;;;;;14.15;6.13;;;;;;;;;;5052856;28;20017;-75
2021/08/15 03:59:38;;;;;;;14.15;6.30;;;;;;;;;;5052305;28;20021;-75
2021/08/15 04:02:03;;;;;;;11.77;6.50;;;;;;;;;;5034703;28;20390;-75
2021/08/15 04:04:29;;;;;;;9.95;6.00;;;;;;;;;;5052842;28;20469;-75
2021/08/15 04:06:54;;;;;;;13.02;5.50;;;;;;;;;;5052494;28;20017;-75
2021/08/15 04:09:19;;;;;;;11.90;5.55;;;;;;;;;;5052109;28;20517;-75
2021/08/15 04:11:44;;;;;;;14.32;6.47;;;;;;;;;;5053943;28;20028;-75
2021/08/15 04:14:10;;;;;;;12.48;6.70;;;;;;;;;;5056017;28;20036;-75
2021/08/15 04:16:35;;;;;;;13.43;6.78;;;;;;;;;;5055828;28;20548;-75
2021/08/15 04:19:00;;;;;;;9.70;6.22;;;;;;;;;;5056359;28;20029;-76
2021/08/15 04:21:26;;;;;;;10.35;6.30;;;;;;;;;;5056068;28;20032;-75
2021/08/15 04:23:51;;;;;;;11.65;6.55;;;;;;;;;;5056405;28;20044;-75
2021/08/15 04:26:17;;;;;;;12.20;6.00;;;;;;;;;;5056292;28;20372;-75
2021/08/15 04:28:42;;;;;;;12.95;7.00;;;;;;;;;;5055573;28;20031;-75
2021/08/15 04:31:07;;;;;;;13.73;7.07;;;;;;;;;;5055431;28;20114;-75
2021/08/15 04:33:33;;;;;;;12.43;6.57;;;;;;;;;;5055865;28;20381;-75
2021/08/15 04:35:58;;;;;;;11.10;6.72;;;;;;;;;;5056071;28;20105;-77
2021/08/15 04:38:24;;;;;;;12.32;7.00;;;;;;;;;;5055745;28;20029;-75
2021/08/15 04:40:50;;;;;;;14.40;7.53;;;;;;;;;;5055937;28;20047;-75
2021/08/15 04:43:16;;;;;;;13.48;8.05;;;;;;;;;;5055544;28;20492;-76
2021/08/15 04:45:42;;;;;;;13.23;7.43;;;;;;;;;;5054820;28;20036;-75
2021/08/15 04:48:07;;;;;;;11.13;7.75;;;;;;;;;;5055248;28;20036;-75
2021/08/15 04:50:33;;;;;;;15.73;9.05;;;;;;;;;;5055860;28;20458;-75
2021/08/15 04:52:58;;;;;;;18.55;8.88;;;;;;;;;;5055466;28;20389;-75
2021/08/15 04:55:23;;;;;;;16.27;8.95;;;;;;;;;;5055445;28;20020;-75
2021/08/15 04:57:48;;;;;;;14.50;9.30;;;;;;;;;;5055310;28;20475;-75
2021/08/15 05:00:14;;;;;;;23.50;9.55;;;;;;;;;;5055157;28;20029;-75
2021/08/15 05:02:39;;;;;;;21.33;9.80;;;;;;;;;;5055221;28;20372;-75
2021/08/15 05:05:04;;;;;;;15.55;10.00;;;;;;;;;;5055283;28;20453;-76
2021/08/15 05:07:30;;;;;;;20.98;9.30;;;;;;;;;;5055085;28;20040;-75
2021/08/15 05:09:55;;;;;;;18.13;10.07;;;;;;;;;;5055593;28;20040;-75
2021/08/15 05:12:20;;;;;;;14.60;9.23;;;;;;;;;;5055012;28;20021;-75
2021/08/15 05:14:45;;;;;;;16.70;10.20;;;;;;;;;;5054915;28;20033;-76
2021/08/15 05:17:11;;;;;;;14.23;9.32;;;;;;;;;;5054814;28;20028;-74
2021/08/15 05:19:36;;;;;;;17.52;9.40;;;;;;;;;;5055789;28;20572;-75
2021/08/15 05:22:01;;;;;;;15.65;9.98;;;;;;;;;;5054042;28;20029;-76
2021/08/15 05:24:27;;;;;;;21.35;9.30;;;;;;;;;;5054642;28;20108;-76
2021/08/15 05:26:53;;;;;;;20.98;10.05;;;;;;;;;;5055127;28;20445;-76
2021/08/15 05:29:18;;;;;;;16.65;8.48;;;;;;;;;;5054316;28;20094;-75
2021/08/15 05:31:44;;;;;;;15.00;9.50;;;;;;;;;;5036312;28;20065;-75
2021/08/15 05:34:09;;;;;;;15.05;8.75;;;;;;;;;;5054948;28;20021;-76
2021/08/15 05:36:34;;;;;;;16.33;8.38;;;;;;;;;;5054753;28;20037;-75
2021/08/15 05:39:00;;;;;;;14.60;8.35;;;;;;;;;;5052342;28;20058;-76
2021/08/15 05:41:25;;;;;;;13.32;8.07;;;;;;;;;;5054878;28;20355;-76
2021/08/15 05:43:50;;;;;;;17.83;8.50;;;;;;;;;;5054317;28;20116;-75
2021/08/15 05:46:15;;;;;;;17.85;8.38;;;;;;;;;;5054404;28;20021;-75
2021/08/15 05:48:41;;;;;;;16.92;7.90;;;;;;;;;;5054730;28;20021;-75
2021/08/15 05:51:07;;;;;;;10.73;5.13;;;;;;;;;;5053830;28;20052;-75
2021/08/15 05:53:32;;;;;;;9.75;5.35;;;;;;;;;;5054086;28;20021;-75
2021/08/15 05:55:57;;;;;;;11.27;5.57;;;;;;;;;;5054388;28;20358;-76
2021/08/15 05:58:23;;;;;;;9.40;5.40;;;;;;;;;;5053508;28;20025;-75
2021/08/15 06:00:48;;;;;;;7.28;3.83;;;;;;;;;;5054399;28;20150;-76
2021/08/15 06:03:14;;;;;;;7.25;3.85;;;;;;;;;;5054245;28;20373;-75
2021/08/15 06:05:39;;;;;;;3.90;2.67;;;;;;;;;;5054154;28;20033;-75
2021/08/15 06:08:04;;;;;;;3.58;2.20;;;;;;;;;;5053329;28;20048;-76
2021/08/15 06:10:30;;;;;;;5.32;2.20;;;;;;;;;;5053834;28;20048;-75
2021/08/15 06:12:55;;;;;;;3.40;2.15;;;;;;;;;;5054520;28;20094;-75
2021/08/15 06:15:20;;;;;;;3.67;1.70;;;;;;;;;;5054211;28;20025;-76
2021/08/15 06:17:45;;;;;;;3.63;1.50;;;;;;;;;;5054114;28;20099;-77
2021/08/15 06:20:12;;;;;;;2.10;1.38;;;;;;;;;;5053819;28;20350;-75
2021/08/15 06:22:46;;;;;;;3.13;1.60;;;;;;;;;;5053493;28;20036;-75
2021/08/15 06:25:13;;;;;;;3.78;1.20;;;;;;;;;;5054026;28;20051;-75
2021/08/15 06:27:43;;;;;;;1.67;1.20;;;;;;;;;;5053073;28;20415;-76
2021/08/15 06:30:09;;;;;;;4.18;0.93;;;;;;;;;;5052337;28;20032;-76
2021/08/15 06:32:43;;;;;;;3.55;1.30;;;;;;;;;;5053717;28;20033;-76
2021/08/15 06:35:08;;;;;;;2.55;1.33;;;;;;;;;;5053362;28;20132;-75
2021/08/15 06:37:33;;;;;;;3.78;1.30;;;;;;;;;;5053460;28;20491;-76
2021/08/15 06:39:58;;;;;;;4.25;1.00;;;;;;;;;;5053480;28;20465;-76
2021/08/15 06:42:24;;;;;;;3.30;1.30;;;;;;;;;;5053585;28;20033;-76
2021/08/15 06:44:49;;;;;;;6.07;1.63;;;;;;;;;;5053156;28;20476;-77
2021/08/15 06:47:14;;;;;;;6.43;1.40;;;;;;;;;;5053344;28;20119;-75
2021/08/15 06:49:39;;;;;;;3.42;2.17;;;;;;;;;;5053190;28;20499;-76
2021/08/15 06:52:05;;;;;;;5.03;1.63;;;;;;;;;;5053498;28;20026;-76
2021/08/15 06:54:30;;;;;;;3.92;1.38;;;;;;;;;;5053255;28;20033;-76
2021/08/15 06:56:55;;;;;;;3.60;1.58;;;;;;;;;;5053389;28;20029;-76
2021/08/15 06:59:21;;;;;;;4.68;1.38;;;;;;;;;;5053132;28;20049;-77
2021/08/15 07:01:46;;;;;;;4.85;1.30;;;;;;;;;;5052931;28;20042;-78
2021/08/15 07:04:11;;;;;;;3.90;1.30;;;;;;;;;;5051744;28;20029;-75
2021/08/15 07:06:36;;;;;;;4.13;1.63;;;;;;;;;;5051982;28;20032;-75
2021/08/15 07:09:02;;;;;;;4.13;1.30;;;;;;;;;;5052640;28;20029;-76
2021/08/15 07:11:27;;;;;;;5.80;1.70;;;;;;;;;;5052443;28;20032;-75
2021/08/15 07:13:52;;;;;;;5.90;1.90;;;;;;;;;;5052662;28;20155;-75
2021/08/15 07:16:18;;;;;;;6.28;1.70;;;;;;;;;;5052943;28;20258;-75
2021/08/15 07:18:43;;;;;;;3.05;1.63;;;;;;;;;;5053110;28;20033;-75
2021/08/15 07:21:08;;;;;;;7.90;2.67;;;;;;;;;;5052972;28;20024;-75
2021/08/15 07:23:34;;;;;;;9.18;1.85;;;;;;;;;;5034771;28;20029;-75
2021/08/15 07:25:59;;;;;;;8.30;2.25;;;;;;;;;;5050522;28;20046;-75
2021/08/15 07:28:24;;;;;;;5.85;2.15;;;;;;;;;;5051495;28;20093;-75
2021/08/15 07:30:50;;;;;;;6.38;2.22;;;;;;;;;;5052048;28;20045;-76
2021/08/15 07:33:15;;;;;;;7.20;2.00;;;;;;;;;;5033245;28;20029;-75
2021/08/15 07:35:40;;;;;;;7.03;2.50;;;;;;;;;;5050336;28;20022;-76
2021/08/15 07:38:06;;;;;;;8.18;1.65;;;;;;;;;;5051431;28;20025;-75
2021/08/15 07:40:31;;;;;;;9.80;2.03;;;;;;;;;;5048723;28;20121;-75
2021/08/15 07:42:57;;;;;;;9.82;2.78;;;;;;;;;;5045132;28;20532;-75
2021/08/15 07:45:23;;;;;;;5.85;2.25;;;;;;;;;;5032002;28;20025;-75
2021/08/15 07:47:49;;;;;;;6.85;2.17;;;;;;;;;;5051534;28;20465;-75
2021/08/15 07:50:14;;;;;;;9.50;2.55;;;;;;;;;;5056137;28;20028;-75
2021/08/15 07:52:39;;;;;;;6.85;1.90;;;;;;;;;;5051971;28;20025;-79
2021/08/15 07:55:05;;;;;;;5.57;2.05;;;;;;;;;;5056296;28;20029;-78
2021/08/15 07:57:30;;;;;;;11.65;2.70;;;;;;;;;;5054797;28;20025;-77
2021/08/15 07:59:56;;;;;;;8.70;2.30;;;;;;;;;;5055390;28;20033;-77
2021/08/15 08:02:22;;;;;;;9.13;2.30;;;;;;;;;;5055833;28;20067;-77
2021/08/15 08:04:49;;;;;;;8.45;2.30;;;;;;;;;;5055574;28;20020;-77
2021/08/15 08:07:18;;;;;;;6.82;2.30;;;;;;;;;;5055278;28;20025;-77
2021/08/15 08:09:44;;;;;;;11.48;3.25;;;;;;;;;;5055500;28;20031;-77
2021/08/15 08:12:09;;;;;;;10.82;3.25;;;;;;;;;;5055351;28;20029;-77
2021/08/15 08:14:34;;;;;;;10.05;2.53;;;;;;;;;;5055917;28;20029;-78
2021/08/15 08:17:00;;;;;;;7.38;2.17;;;;;;;;;;5055797;28;20385;-77
2021/08/15 08:19:25;;;;;;;7.50;2.10;;;;;;;;;;5045407;28;20462;-75
2021/08/15 08:21:50;;;;;;;7.20;2.10;;;;;;;;;;5049642;28;20341;-76
2021/08/15 08:24:15;;;;;;;7.60;2.17;;;;;;;;;;5055935;28;20029;-75
2021/08/15 08:26:41;;;;;;;9.02;2.30;;;;;;;;;;5055722;28;20487;-75
2021/08/15 08:29:06;;;;;;;9.45;2.22;;;;;;;;;;5055897;28;20029;-75
2021/08/15 08:31:31;;;;;;;10.75;2.72;;;;;;;;;;5055831;28;20128;-75
2021/08/15 08:33:56;;;;;;;9.07;2.53;;;;;;;;;;5055864;28;20017;-75
2021/08/15 08:36:22;;;;;;;8.32;2.38;;;;;;;;;;5055351;28;20040;-75
2021/08/15 08:38:47;;;;;;;9.23;2.60;;;;;;;;;;5039840;28;20063;-75
2021/08/15 08:41:14;;;;;;;6.78;2.60;;;;;;;;;;5046548;28;20032;-75
2021/08/15 08:43:39;;;;;;;9.40;2.95;;;;;;;;;;5055476;28;20029;-77
2021/08/15 08:46:06;;;;;;;9.25;2.80;;;;;;;;;;5054646;28;20254;-78
2021/08/15 08:48:33;;;;;;;7.97;2.72;;;;;;;;;;5053898;28;20553;-77
2021/08/15 08:50:58;;;;;;;7.45;2.08;;;;;;;;;;5054484;28;20420;-76
2021/08/15 08:53:23;;;;;;;8.10;2.53;;;;;;;;;;5055034;28;20033;-76
2021/08/15 08:55:49;;;;;;;12.40;2.53;;;;;;;;;;5037197;28;20021;-76
2021/08/15 08:58:14;;;;;;;7.68;2.80;;;;;;;;;;5053973;28;20079;-76
2021/08/15 09:00:39;;;;;;;7.60;2.40;;;;;;;;;;5055160;28;20040;-76
2021/08/15 09:03:04;;;;;;;6.55;2.40;;;;;;;;;;5054739;28;20021;-76
2021/08/15 09:05:31;;;;;;;9.27;2.38;;;;;;;;;;5055171;28;20542;-75
2021/08/15 09:07:57;;;;;;;12.77;2.25;;;;;;;;;;5055038;28;20029;-75
2021/08/15 09:10:28;;;;;;;14.88;2.80;;;;;;;;;;5054944;28;20050;-76
2021/08/15 09:12:59;;;;;;;8.23;1.95;;;;;;;;;;5054163;28;20033;-76
2021/08/15 09:15:26;;;;;;;12.35;3.20;;;;;;;;;;5032634;28;20461;-76
2021/08/15 09:17:52;;;;;;;9.10;2.17;;;;;;;;;;5054430;28;20017;-76
2021/08/15 09:20:24;;;;;;;13.82;2.90;;;;;;;;;;5054184;28;20116;-74
2021/08/15 09:22:50;;;;;;;10.95;2.55;;;;;;;;;;5054844;28;20111;-74
2021/08/15 09:25:21;;;;;;;11.25;2.65;;;;;;;;;;5054520;28;20096;-74
2021/08/15 09:27:56;;;;;;;16.48;3.17;;;;;;;;;;5054808;28;20017;-74
2021/08/15 09:30:26;;;;;;;10.80;2.47;;;;;;;;;;5054060;28;20048;-74
2021/08/15 09:32:58;;;;;;;15.68;2.60;;;;;;;;;;5036839;28;20029;-74
2021/08/15 09:35:36;;;;;;;11.00;2.55;;;;;;;;;;5054620;28;20028;-74
2021/08/15 09:38:01;;;;;;;13.75;2.78;;;;;;;;;;5054285;28;20056;-75
2021/08/15 09:40:34;;;;;;;16.65;3.45;;;;;;;;;;5054559;28;20433;-74
2021/08/15 09:43:00;;;;;;;11.98;2.95;;;;;;;;;;5054032;28;20029;-75
2021/08/15 09:45:31;;;;;;;16.00;3.05;;;;;;;;;;5054256;28;20033;-76
2021/08/15 09:47:56;;;;;;;13.00;2.85;;;;;;;;;;5053800;28;20025;-75
2021/08/15 09:50:23;;;;;;;8.82;3.13;;;;;;;;;;5054404;28;20040;-74
2021/08/15 09:52:48;;;;;;;14.63;2.75;;;;;;;;;;5054293;28;20029;-74
2021/08/15 09:55:13;;;;;;;9.32;3.00;;;;;;;;;;5054027;28;20044;-75
2021/08/15 09:57:39;;;;;;;11.00;3.10;;;;;;;;;;5054268;28;20025;-74
2021/08/15 10:00:06;;;;;;;15.13;3.20;;;;;;;;;;5054109;28;20029;-74
2021/08/15 10:02:32;;;;;;;15.95;3.72;;;;;;;;;;5054220;28;20036;-74
2021/08/15 10:04:57;;;;;;;16.10;3.20;;;;;;;;;;5054048;28;20025;-75
2021/08/15 10:07:24;;;;;;;13.60;2.92;;;;;;;;;;5053847;28;20032;-74
2021/08/15 10:09:50;;;;;;;11.57;2.50;;;;;;;;;;5053843;28;20076;-76
2021/08/15 10:12:15;;;;;;;10.50;3.20;;;;;;;;;;5054072;28;20040;-76
2021/08/15 10:14:40;;;;;;;13.07;2.40;;;;;;;;;;5053703;28;20029;-75
2021/08/15 10:17:08;;;;;;;17.08;3.33;;;;;;;;;;5053353;28;20116;-75
2021/08/15 10:19:52;;;;;;;14.05;2.45;;;;;;;;;;5053693;28;20377;-76
2021/08/15 10:22:27;;;;;;;11.60;2.88;;;;;;;;;;5053770;28;20037;-75
2021/08/15 10:24:53;;;;;;;15.95;3.58;;;;;;;;;;5053087;28;20553;-75
2021/08/15 10:27:37;;;;;;;13.88;2.83;;;;;;;;;;5053864;28;20500;-75
2021/08/15 10:30:02;;;;;;;15.73;3.40;;;;;;;;;;5053689;28;20033;-75
2021/08/15 10:32:28;;;;;;;12.02;2.90;;;;;;;;;;5036034;28;20036;-75
2021/08/15 10:34:54;;;;;;;11.75;3.40;;;;;;;;;;5053876;28;20025;-76
2021/08/15 10:37:25;;;;;;;11.32;2.90;;;;;;;;;;5053845;28;20017;-75
2021/08/15 10:39:51;;;;;;;14.80;3.33;;;;;;;;;;5053931;28;20029;-76
2021/08/15 10:42:43;;;;;;;8.57;2.50;;;;;;;;;;5053510;28;20029;-77
2021/08/15 10:45:09;;;;;;;10.85;2.70;;;;;;;;;;5048539;28;20480;-76
2021/08/15 10:47:35;;;;;;;9.25;2.45;;;;;;;;;;5053751;28;20381;-76
2021/08/15 10:50:04;;;;;;;6.38;2.05;;;;;;;;;;5053457;28;20397;-76
2021/08/15 10:52:34;;;;;;;11.07;2.30;;;;;;;;;;5053535;28;20112;-77
2021/08/15 10:55:00;;;;;;;10.48;2.80;;;;;;;;;;5053482;28;20033;-77
2021/08/15 10:57:45;;;;;;;7.72;2.10;;;;;;;;;;5052905;28;20469;-76
2021/08/15 11:00:29;;;;;;;10.15;1.80;;;;;;;;;;5052580;28;20017;-77
2021/08/15 11:02:58;;;;;;;9.85;2.10;;;;;;;;;;5044554;28;20082;-77
2021/08/15 11:05:41;;;;;;;9.70;1.92;;;;;;;;;;5033528;28;20113;-76
2021/08/15 11:08:25;;;;;;;10.23;2.38;;;;;;;;;;5050040;28;20037;-76
2021/08/15 11:11:14;;;;;;;8.98;2.47;;;;;;;;;;5052119;28;20389;-76
2021/08/15 11:13:39;;;;;;;15.30;2.70;;;;;;;;;;5053202;28;20033;-74
2021/08/15 11:16:23;;;;;;;7.45;2.30;;;;;;;;;;5053073;28;20017;-75
2021/08/15 11:19:07;;;;;;;7.35;2.20;;;;;;;;;;5051849;28;20055;-74
2021/08/15 11:21:50;;;;;;;13.30;2.83;;;;;;;;;;5054124;28;20060;-74
2021/08/15 11:24:21;;;;;;;8.73;1.95;;;;;;;;;;5057207;28;20039;-74
2021/08/15 11:26:46;;;;;;;12.32;2.08;;;;;;;;;;5057324;28;20028;-74
2021/08/15 11:29:13;;;;;;;7.45;1.63;;;;;;;;;;5057158;28;20028;-75
2021/08/15 11:31:38;;;;;;;10.65;2.33;;;;;;;;;;5057152;28;20080;-75
2021/08/15 11:34:07;;;;;;;10.60;2.13;;;;;;;;;;5057167;28;20017;-75
2021/08/15 11:36:32;;;;;;;10.55;2.25;;;;;;;;;;5056639;28;20068;-75
2021/08/15 11:38:57;;;;;;;9.80;2.42;;;;;;;;;;5056941;28;20052;-75
2021/08/15 11:41:23;;;;;;;10.18;1.95;;;;;;;;;;5056551;28;20013;-75
2021/08/15 11:43:57;;;;;;;10.40;2.55;;;;;;;;;;5056889;28;20036;-75
2021/08/15 11:46:22;;;;;;;11.40;2.75;;;;;;;;;;5056953;28;20044;-74
2021/08/15 11:48:48;;;;;;;9.20;2.08;;;;;;;;;;5056078;28;20025;-75
2021/08/15 11:51:13;;;;;;;6.07;1.70;;;;;;;;;;5056086;28;20462;-75
2021/08/15 11:53:39;;;;;;;6.55;2.03;;;;;;;;;;5057010;28;20029;-74
2021/08/15 11:56:14;;;;;;;6.78;2.08;;;;;;;;;;5055753;28;20492;-75
2021/08/15 11:58:46;;;;;;;6.40;1.75;;;;;;;;;;5056513;28;20032;-74
2021/08/15 12:01:12;;;;;;;7.95;1.90;;;;;;;;;;5056409;28;20100;-74
2021/08/15 12:03:38;;;;;;;6.20;1.77;;;;;;;;;;5056588;28;20107;-75
2021/08/15 12:06:04;;;;;;;7.13;1.65;;;;;;;;;;5055906;28;20036;-74
2021/08/15 12:08:33;;;;;;;5.93;1.63;;;;;;;;;;5055975;28;20033;-75
2021/08/15 12:10:59;;;;;;;6.82;1.55;;;;;;;;;;5056381;28;20417;-75
2021/08/15 12:13:32;;;;;;;3.58;1.10;;;;;;;;;;5056013;28;20132;-74
2021/08/15 12:15:57;;;;;;;3.75;1.45;;;;;;;;;;5055733;28;20033;-75
2021/08/15 12:18:29;;;;;;;4.63;1.10;;;;;;;;;;5056355;28;20020;-75
2021/08/15 12:20:55;;;;;;;6.80;1.27;;;;;;;;;;5055442;28;20285;-75
2021/08/15 12:23:20;;;;;;;5.45;1.27;;;;;;;;;;5056191;28;20465;-74
2021/08/15 12:26:01;;;;;;;1.60;0.75;;;;;;;;;;5055905;28;20032;-75
2021/08/15 12:28:30;;;;;;;5.30;2.55;;;;;;;;;;5055961;28;20029;-74
2021/08/15 12:30:56;;;;;;;5.93;1.50;;;;;;;;;;5055664;28;20474;-74
2021/08/15 12:33:25;;;;;;;8.18;2.03;;;;;;;;;;5055339;28;20021;-74
2021/08/15 12:35:50;;;;;;;5.30;1.70;;;;;;;;;;5055813;28;20025;-74
2021/08/15 12:38:30;;;;;;;7.82;2.25;;;;;;;;;;5037568;28;20492;-74
2021/08/15 12:41:16;;;;;;;7.38;1.60;;;;;;;;;;5055753;28;20031;-74
2021/08/15 12:43:41;;;;;;;5.60;1.83;;;;;;;;;;5035696;28;20044;-74
2021/08/15 12:46:18;;;;;;;9.55;2.50;;;;;;;;;;5036182;28;20029;-74
2021/08/15 12:48:43;;;;;;;5.32;2.35;;;;;;;;;;5047778;28;20560;-75
2021/08/15 12:51:08;;;;;;;5.18;1.50;;;;;;;;;;5055194;28;20124;-74
2021/08/15 12:53:34;;;;;;;7.63;1.45;;;;;;;;;;5037014;28;20086;-74
2021/08/15 12:56:13;;;;;;;3.95;1.15;;;;;;;;;;5055426;28;20017;-74
2021/08/15 12:58:38;;;;;;;7.38;1.60;;;;;;;;;;5054928;28;20032;-75
2021/08/15 13:01:03;;;;;;;5.78;1.15;;;;;;;;;;5055310;28;20021;-75
2021/08/15 13:03:29;;;;;;;8.85;1.83;;;;;;;;;;5055663;28;20468;-75
2021/08/15 13:05:54;;;;;;;6.40;1.85;;;;;;;;;;5054457;28;20433;-75
2021/08/15 13:08:19;;;;;;;7.32;1.70;;;;;;;;;;5055456;28;20424;-74
2021/08/15 13:10:45;;;;;;;7.32;1.23;;;;;;;;;;5055351;28;20029;-74
2021/08/15 13:13:14;;;;;;;5.97;1.05;;;;;;;;;;5054969;28;20029;-74
2021/08/15 13:15:40;;;;;;;4.03;1.00;;;;;;;;;;5055351;28;20112;-74
2021/08/15 13:18:05;;;;;;;3.75;0.80;;;;;;;;;;5055203;28;20100;-74
2021/08/15 13:20:34;;;;;;;6.68;1.25;;;;;;;;;;5055316;28;20104;-74
2021/08/15 13:23:00;;;;;;;3.90;1.20;;;;;;;;;;5055072;28;20393;-75
2021/08/15 13:25:28;;;;;;;5.43;1.30;;;;;;;;;;5055247;28;20025;-75
2021/08/15 13:27:54;;;;;;;6.70;1.33;;;;;;;;;;5055132;28;20021;-74
2021/08/15 13:30:19;;;;;;;4.60;1.60;;;;;;;;;;5054697;28;20195;-74
2021/08/15 13:32:45;;;;;;;4.95;1.08;;;;;;;;;;5055058;28;20024;-74
2021/08/15 13:35:11;;;;;;;3.13;0.98;;;;;;;;;;5054930;28;20029;-74
2021/08/15 13:37:37;;;;;;;5.88;0.93;;;;;;;;;;5054525;28;20025;-74
2021/08/15 13:40:07;;;;;;;3.75;0.98;;;;;;;;;;5054852;28;20101;-74
2021/08/15 13:42:33;;;;;;;3.53;0.73;;;;;;;;;;5054420;28;20493;-74
2021/08/15 13:44:59;;;;;;;2.22;0.75;;;;;;;;;;5054042;28;20041;-75
2021/08/15 13:47:26;;;;;;;1.95;0.70;;;;;;;;;;5054811;28;20066;-74
2021/08/15 13:49:52;;;;;;;3.33;0.75;;;;;;;;;;5054633;28;20037;-74
2021/08/15 13:52:17;;;;;;;3.70;1.05;;;;;;;;;;5054510;28;20040;-74
2021/08/15 13:54:43;;;;;;;1.52;0.90;;;;;;;;;;5054439;28;20536;-74
2021/08/15 13:57:09;;;;;;;2.85;0.70;;;;;;;;;;5054506;28;20112;-74
2021/08/15 13:59:34;;;;;;;3.55;0.77;;;;;;;;;;5054560;28;20044;-74
2021/08/15 14:01:59;;;;;;;2.42;0.98;;;;;;;;;;5036560;28;20461;-74
2021/08/15 14:04:25;;;;;;;0.65;0.50;;;;;;;;;;5054093;28;20029;-74
2021/08/15 14:06:50;;;;;;;3.80;0.70;;;;;;;;;;5054385;28;20060;-75
2021/08/15 14:09:15;;;;;;;2.17;0.60;;;;;;;;;;5054279;28;20082;-74
2021/08/15 14:11:42;;;;;;;5.80;1.02;;;;;;;;;;5054267;28;20064;-74
2021/08/15 14:14:07;;;;;;;4.47;1.10;;;;;;;;;;5054175;28;20045;-74
2021/08/15 14:16:32;;;;;;;2.95;0.75;;;;;;;;;;5054194;28;20028;-76
2021/08/15 14:18:58;;;;;;;3.08;0.73;;;;;;;;;;5054028;28;20385;-74
2021/08/15 14:21:24;;;;;;;3.78;1.00;;;;;;;;;;5053725;28;20500;-74
2021/08/15 14:23:50;;;;;;;2.53;0.70;;;;;;;;;;5053769;28;20032;-74
2021/08/15 14:26:22;;;;;;;5.05;1.45;;;;;;;;;;5053558;28;20480;-74
2021/08/15 14:28:48;;;;;;;2.78;0.82;;;;;;;;;;5053888;28;20059;-73
2021/08/15 14:31:13;;;;;;;2.47;0.85;;;;;;;;;;5053483;28;20477;-75